createdAt,value
2018-06-27T00:01:46.027Z,13.26
2018-06-27T00:04:52.033Z,13.23
2018-06-27T00:07:56.380Z,13.24
2018-06-27T00:11:02.572Z,13.28
2018-06-27T00:14:06.938Z,13.24
2018-06-27T00:17:11.270Z,13.33
2018-06-27T00:20:16.345Z,13.34
2018-06-27T00:23:20.838Z,13.32
2018-06-27T00:26:25.199Z,13.38
2018-06-27T00:29:30.194Z,13.36
2018-06-27T00:32:34.941Z,13.39
2018-06-27T00:35:39.223Z,13.34
2018-06-27T00:38:43.857Z,13.29
2018-06-27T00:41:48.429Z,13.27
2018-06-27T00:44:52.742Z,13.25
2018-06-27T00:47:57.565Z,13.22
2018-06-27T00:51:01.883Z,13.19
2018-06-27T00:54:07.772Z,13.13
2018-06-27T00:57:11.888Z,13.08
2018-06-27T01:00:16.174Z,13.05
2018-06-27T01:03:20.493Z,13.05
2018-06-27T01:06:25.608Z,12.96
2018-06-27T01:09:29.926Z,13.00
2018-06-27T01:12:34.997Z,12.97
2018-06-27T01:15:39.590Z,12.92
2018-06-27T01:18:43.941Z,12.88
2018-06-27T01:21:48.608Z,12.83
2018-06-27T01:24:52.921Z,12.83
2018-06-27T01:27:57.223Z,12.78
2018-06-27T01:31:01.538Z,12.76
2018-06-27T01:34:06.210Z,12.77
2018-06-27T01:37:10.476Z,12.74
2018-06-27T01:40:14.976Z,12.73
2018-06-27T01:43:19.262Z,12.76
2018-06-27T01:46:23.691Z,12.75
2018-06-27T01:49:27.921Z,12.70
2018-06-27T01:52:33.718Z,12.70
2018-06-27T01:55:37.998Z,12.63
2018-06-27T01:58:42.681Z,12.62
2018-06-27T02:01:47.145Z,12.61
2018-06-27T02:04:51.449Z,12.56
2018-06-27T02:07:55.662Z,12.52
2018-06-27T02:10:59.966Z,12.49
2018-06-27T02:14:04.744Z,12.47
2018-06-27T02:17:09.049Z,12.46
2018-06-27T02:20:14.195Z,12.40
2018-06-27T02:23:18.545Z,12.45
2018-06-27T02:26:22.834Z,12.41
2018-06-27T02:29:27.901Z,12.33
2018-06-27T02:32:32.210Z,12.39
2018-06-27T02:35:36.700Z,12.38
2018-06-27T02:38:41.039Z,12.52
2018-06-27T02:41:45.911Z,12.44
2018-06-27T02:44:50.319Z,12.45
2018-06-27T02:47:54.945Z,12.50
2018-06-27T02:50:59.751Z,12.47
2018-06-27T02:54:04.071Z,12.37
2018-06-27T02:57:08.337Z,12.29
2018-06-27T03:00:15.612Z,12.40
2018-06-27T03:03:19.918Z,12.38
2018-06-27T03:06:24.460Z,12.28
2018-06-27T03:09:29.690Z,12.31
2018-06-27T03:12:34.181Z,12.13
2018-06-27T03:15:38.546Z,11.83
2018-06-27T03:18:54.253Z,11.67
2018-06-27T03:21:58.544Z,11.92
2018-06-27T03:25:02.868Z,11.84
2018-06-27T03:28:07.305Z,11.84
2018-06-27T03:31:11.616Z,11.91
2018-06-27T03:34:15.905Z,11.97
2018-06-27T03:37:20.178Z,12.05
2018-06-27T03:40:24.596Z,12.05
2018-06-27T03:43:29.399Z,12.07
2018-06-27T03:46:34.170Z,12.11
2018-06-27T03:49:38.478Z,12.12
2018-06-27T03:52:47.624Z,12.22
2018-06-27T03:55:52.523Z,12.55
2018-06-27T03:58:56.947Z,12.74
2018-06-27T04:02:01.824Z,12.64
2018-06-27T04:05:06.614Z,12.68
2018-06-27T04:08:11.715Z,12.76
2018-06-27T04:11:16.046Z,12.99
2018-06-27T04:14:20.960Z,12.76
2018-06-27T04:17:25.372Z,12.97
2018-06-27T04:20:29.771Z,13.12
2018-06-27T04:23:35.131Z,13.44
2018-06-27T04:26:39.880Z,13.35
2018-06-27T04:29:44.217Z,13.45
2018-06-27T04:32:49.097Z,13.64
2018-06-27T04:35:53.396Z,13.89
2018-06-27T04:38:58.641Z,13.91
2018-06-27T04:42:03.513Z,14.07
2018-06-27T04:45:07.897Z,14.25
2018-06-27T04:48:12.484Z,14.33
2018-06-27T04:51:39.344Z,14.92
2018-06-27T04:54:44.051Z,15.31
2018-06-27T04:57:48.554Z,15.31
2018-06-27T05:00:52.861Z,14.83
2018-06-27T05:03:57.511Z,14.73
2018-06-27T05:07:01.894Z,14.64
2018-06-27T05:10:06.378Z,14.46
2018-06-27T05:13:10.809Z,14.44
2018-06-27T05:16:15.190Z,14.34
2018-06-27T05:19:21.446Z,14.64
2018-06-27T05:22:25.840Z,14.78
2018-06-27T05:25:30.733Z,14.58
2018-06-27T05:28:35.798Z,14.58
2018-06-27T05:31:40.871Z,14.59
2018-06-27T05:34:45.153Z,14.80
2018-06-27T05:37:49.463Z,14.77
2018-06-27T05:40:53.761Z,14.80
2018-06-27T05:43:58.329Z,14.79
2018-06-27T05:47:02.600Z,14.83
2018-06-27T05:50:06.920Z,14.93
2018-06-27T05:53:11.286Z,15.16
2018-06-27T05:56:15.582Z,15.27
2018-06-27T05:59:20.287Z,15.23
2018-06-27T06:02:24.581Z,15.41
2018-06-27T06:05:28.901Z,15.13
2018-06-27T06:08:33.270Z,15.44
2018-06-27T06:11:38.013Z,15.91
2018-06-27T06:14:42.242Z,15.85
2018-06-27T06:17:46.995Z,16.09
2018-06-27T06:20:51.294Z,16.57
2018-06-27T06:23:58.805Z,16.81
2018-06-27T06:27:07.098Z,17.31
2018-06-27T06:30:11.142Z,17.37
2018-06-27T06:33:15.500Z,16.70
2018-06-27T06:36:20.145Z,16.16
2018-06-27T06:39:24.462Z,16.36
2018-06-27T06:42:28.766Z,16.71
2018-06-27T06:45:33.053Z,16.93
2018-06-27T06:48:38.383Z,16.97
2018-06-27T06:51:42.660Z,16.61
2018-06-27T06:54:47.289Z,16.86
2018-06-27T06:57:51.663Z,17.13
2018-06-27T07:00:56.184Z,16.62
2018-06-27T07:04:00.676Z,16.45
2018-06-27T07:07:05.029Z,15.96
2018-06-27T07:10:10.079Z,16.02
2018-06-27T07:13:14.424Z,17.03
2018-06-27T07:16:18.729Z,18.11
2018-06-27T07:19:23.801Z,17.14
2018-06-27T07:22:29.104Z,16.62
2018-06-27T07:25:33.439Z,16.51
2018-06-27T07:28:37.925Z,16.72
2018-06-27T07:31:42.106Z,16.58
2018-06-27T07:34:46.393Z,16.31
2018-06-27T07:37:50.920Z,16.38
2018-06-27T07:40:55.978Z,16.64
2018-06-27T07:44:00.498Z,16.75
2018-06-27T07:47:04.789Z,16.96
2018-06-27T07:50:09.195Z,17.32
2018-06-27T07:53:14.914Z,17.75
2018-06-27T07:56:20.460Z,17.71
2018-06-27T07:59:24.837Z,17.72
2018-06-27T08:02:29.175Z,17.61
2018-06-27T08:05:33.492Z,17.35
2018-06-27T08:08:38.321Z,17.53
2018-06-27T08:11:43.193Z,18.33
2018-06-27T08:14:47.513Z,19.89
2018-06-27T08:17:51.918Z,20.16
2018-06-27T08:20:56.358Z,19.28
2018-06-27T08:24:01.788Z,18.61
2018-06-27T08:27:06.089Z,17.96
2018-06-27T08:30:10.531Z,18.36
2018-06-27T08:33:15.587Z,18.66
2018-06-27T08:36:19.912Z,17.97
2018-06-27T08:39:24.811Z,17.80
2018-06-27T08:42:29.413Z,18.43
2018-06-27T08:45:33.818Z,18.48
2018-06-27T08:48:38.226Z,18.85
2018-06-27T08:51:43.349Z,19.60
2018-06-27T08:54:49.143Z,18.88
2018-06-27T08:57:53.602Z,19.00
2018-06-27T09:00:58.374Z,18.83
2018-06-27T09:04:02.723Z,18.64
2018-06-27T09:07:07.706Z,18.36
2018-06-27T09:10:12.057Z,18.44
2018-06-27T09:13:16.316Z,19.22
2018-06-27T09:16:20.599Z,19.76
2018-06-27T09:19:25.078Z,19.66
2018-06-27T09:22:29.361Z,19.91
2018-06-27T09:25:33.952Z,20.93
2018-06-27T09:28:38.516Z,21.33
2018-06-27T09:31:42.880Z,22.08
2018-06-27T09:34:47.275Z,21.40
2018-06-27T09:37:51.746Z,20.68
2018-06-27T09:40:56.089Z,20.73
2018-06-27T09:44:00.475Z,20.94
2018-06-27T09:47:05.799Z,20.48
2018-06-27T09:50:10.257Z,20.29
2018-06-27T09:53:14.357Z,20.38
2018-06-27T09:56:18.800Z,20.27
2018-06-27T09:59:23.718Z,20.43
2018-06-27T10:02:28.322Z,19.92
2018-06-27T10:05:32.735Z,20.14
2018-06-27T10:08:37.139Z,20.39
2018-06-27T10:11:41.434Z,20.29
2018-06-27T10:14:45.933Z,19.66
2018-06-27T10:17:50.263Z,19.69
2018-06-27T10:20:55.414Z,20.33
2018-06-27T10:23:59.741Z,21.09
2018-06-27T10:27:04.644Z,19.91
2018-06-27T10:30:09.955Z,20.32
2018-06-27T10:33:15.377Z,20.18
2018-06-27T10:36:20.549Z,20.35
2018-06-27T10:39:25.098Z,20.02
2018-06-27T10:42:30.176Z,20.63
2018-06-27T10:45:34.731Z,20.58
2018-06-27T10:48:39.005Z,20.88
2018-06-27T10:51:43.401Z,20.99
2018-06-27T10:54:51.964Z,20.53
2018-06-27T10:57:56.356Z,20.24
2018-06-27T11:01:01.488Z,19.97
2018-06-27T11:04:05.874Z,19.98
2018-06-27T11:07:10.171Z,20.23
2018-06-27T11:10:14.676Z,20.15
2018-06-27T11:13:19.017Z,20.42
2018-06-27T11:16:23.321Z,20.73
2018-06-27T11:19:27.906Z,20.82
2018-06-27T11:22:32.209Z,20.63
2018-06-27T11:25:36.507Z,20.43
2018-06-27T11:28:40.911Z,20.52
2018-06-27T11:31:45.617Z,20.85
2018-06-27T11:34:50.522Z,20.88
2018-06-27T11:37:54.706Z,20.68
2018-06-27T11:40:59.095Z,20.08
2018-06-27T11:44:03.435Z,20.52
2018-06-27T11:47:08.373Z,20.78
2018-06-27T11:50:13.309Z,20.89
2018-06-27T11:53:17.956Z,20.63
2018-06-27T11:56:23.632Z,20.71
2018-06-27T11:59:28.466Z,21.16
2018-06-27T12:02:33.649Z,21.61
2018-06-27T12:05:38.097Z,21.66
2018-06-27T12:08:42.517Z,21.01
2018-06-27T12:11:47.092Z,20.77
2018-06-27T12:14:51.850Z,21.02
2018-06-27T12:17:57.292Z,21.09
2018-06-27T12:21:01.760Z,21.40
2018-06-27T12:24:07.072Z,21.83
2018-06-27T12:27:11.918Z,22.48
2018-06-27T12:30:21.730Z,22.50
2018-06-27T12:33:26.510Z,22.24
2018-06-27T12:36:31.192Z,21.15
2018-06-27T12:39:35.621Z,20.48
2018-06-27T12:42:40.858Z,20.11
2018-06-27T12:45:45.365Z,19.87
2018-06-27T12:48:49.837Z,19.71
2018-06-27T12:51:55.464Z,19.36
2018-06-27T12:55:03.732Z,19.32
2018-06-27T12:58:10.979Z,19.12
2018-06-27T13:01:16.379Z,19.07
2018-06-27T13:04:20.833Z,18.91
2018-06-27T13:07:25.561Z,19.13
2018-06-27T13:10:29.708Z,19.66
2018-06-27T13:13:34.639Z,19.63
2018-06-27T13:16:38.898Z,20.37
2018-06-27T13:19:43.343Z,20.63
2018-06-27T13:22:47.660Z,20.40
2018-06-27T13:25:52.015Z,20.63
2018-06-27T13:28:56.700Z,20.72
2018-06-27T13:32:01.044Z,20.86
2018-06-27T13:35:06.939Z,21.07
2018-06-27T13:38:11.322Z,20.91
2018-06-27T13:41:16.921Z,20.77
2018-06-27T13:44:21.245Z,20.67
2018-06-27T13:47:25.635Z,20.70
2018-06-27T13:50:29.962Z,20.42
2018-06-27T13:53:35.026Z,20.68
2018-06-27T13:56:39.937Z,20.18
2018-06-27T13:59:44.366Z,20.06
2018-06-27T14:02:48.822Z,19.97
2018-06-27T14:05:53.575Z,20.02
2018-06-27T14:08:58.657Z,20.28
2018-06-27T14:12:03.047Z,20.74
2018-06-27T14:15:07.494Z,21.34
2018-06-27T14:18:12.285Z,21.93
2018-06-27T14:21:16.689Z,21.48
2018-06-27T14:24:21.115Z,22.34
2018-06-27T14:27:25.957Z,21.89
2018-06-27T14:30:31.062Z,20.48
2018-06-27T14:33:36.095Z,20.55
2018-06-27T14:36:40.675Z,20.06
2018-06-27T14:39:45.297Z,20.25
2018-06-27T14:42:49.762Z,19.90
2018-06-27T14:45:54.619Z,20.07
2018-06-27T14:49:00.110Z,19.67
2018-06-27T14:52:05.734Z,19.01
2018-06-27T14:55:10.344Z,18.98
2018-06-27T14:58:14.601Z,19.01
2018-06-27T15:01:19.207Z,18.79
2018-06-27T15:04:23.539Z,19.08
2018-06-27T15:07:28.163Z,19.31
2018-06-27T15:10:32.480Z,19.79
2018-06-27T15:13:37.419Z,19.85
2018-06-27T15:16:42.468Z,19.40
2018-06-27T15:19:46.736Z,19.31
2018-06-27T15:22:51.857Z,19.36
2018-06-27T15:25:56.330Z,19.26
2018-06-27T15:29:01.362Z,19.13
2018-06-27T15:32:06.164Z,19.23
2018-06-27T15:35:10.530Z,19.40
2018-06-27T15:38:15.136Z,19.37
2018-06-27T15:41:19.715Z,19.01
2018-06-27T15:44:24.412Z,19.12
2018-06-27T15:47:28.836Z,19.37
2018-06-27T15:50:33.139Z,19.76
2018-06-27T15:53:37.524Z,19.76
2018-06-27T15:56:41.866Z,19.77
2018-06-27T15:59:52.318Z,19.55
2018-06-27T16:02:56.986Z,20.01
2018-06-27T16:06:01.447Z,20.29
2018-06-27T16:09:08.446Z,20.33
2018-06-27T16:12:13.739Z,20.17
2018-06-27T16:15:18.036Z,20.10
2018-06-27T16:18:23.058Z,20.54
2018-06-27T16:21:27.522Z,21.12
2018-06-27T16:24:31.879Z,21.33
2018-06-27T16:27:37.095Z,20.80
2018-06-27T16:30:41.526Z,20.54
2018-06-27T16:33:46.373Z,20.28
2018-06-27T16:36:50.795Z,19.89
2018-06-27T16:39:55.461Z,19.90
2018-06-27T16:43:00.400Z,19.88
2018-06-27T16:46:05.047Z,20.06
2018-06-27T16:49:10.496Z,20.51
2018-06-27T16:52:15.224Z,21.43
2018-06-27T16:55:20.836Z,21.92
2018-06-27T16:58:25.289Z,22.53
2018-06-27T17:01:29.890Z,23.07
2018-06-27T17:04:34.030Z,22.60
2018-06-27T17:07:39.519Z,21.92
2018-06-27T17:10:43.906Z,21.20
2018-06-27T17:13:48.476Z,20.33
2018-06-27T17:16:52.870Z,19.65
2018-06-27T17:19:57.182Z,19.16
2018-06-27T17:23:01.539Z,18.67
2018-06-27T17:26:05.939Z,18.57
2018-06-27T17:29:10.389Z,18.60
2018-06-27T17:32:14.734Z,18.83
2018-06-27T17:35:19.223Z,18.83
2018-06-27T17:38:24.370Z,18.55
2018-06-27T17:41:28.972Z,18.51
2018-06-27T17:44:33.453Z,18.47
2018-06-27T17:47:38.832Z,18.15
2018-06-27T17:50:43.832Z,18.23
2018-06-27T17:53:48.179Z,18.24
2018-06-27T17:56:52.389Z,18.09
2018-06-27T17:59:57.254Z,18.04
2018-06-27T18:03:01.863Z,17.99
2018-06-27T18:06:06.686Z,17.94
2018-06-27T18:09:11.771Z,17.81
2018-06-27T18:12:16.081Z,17.74
2018-06-27T18:15:20.379Z,17.49
2018-06-27T18:18:24.899Z,17.44
2018-06-27T18:21:29.192Z,17.31
2018-06-27T18:24:33.802Z,17.37
2018-06-27T18:27:39.870Z,17.19
2018-06-27T18:30:44.225Z,16.98
2018-06-27T18:33:49.233Z,16.86
2018-06-27T18:36:53.537Z,16.80
2018-06-27T18:39:57.839Z,16.78
2018-06-27T18:43:02.255Z,16.74
2018-06-27T18:46:06.910Z,16.75
2018-06-27T18:49:14.334Z,16.80
2018-06-27T18:52:19.360Z,16.70
2018-06-27T18:55:23.726Z,16.61
2018-06-27T18:58:28.806Z,16.48
2018-06-27T19:01:40.594Z,16.40
2018-06-27T19:04:52.939Z,16.28
2018-06-27T19:07:57.657Z,15.80
2018-06-27T19:11:02.962Z,15.73
2018-06-27T19:14:08.433Z,15.74
2018-06-27T19:17:12.949Z,15.56
2018-06-27T19:20:18.180Z,15.45
2018-06-27T19:23:22.759Z,15.27
2018-06-27T19:26:27.210Z,15.15
2018-06-27T19:29:31.737Z,15.10
2018-06-27T19:32:36.238Z,15.08
2018-06-27T19:35:41.501Z,14.98
2018-06-27T19:38:45.996Z,14.85
2018-06-27T19:41:50.326Z,14.82
2018-06-27T19:44:54.849Z,14.63
2018-06-27T19:47:59.169Z,14.59
2018-06-27T19:51:04.211Z,14.51
2018-06-27T19:54:08.982Z,14.46
2018-06-27T19:57:13.429Z,14.35
2018-06-27T20:00:18.564Z,14.28
2018-06-27T20:03:23.109Z,14.27
2018-06-27T20:06:27.614Z,14.16
2018-06-27T20:09:32.273Z,14.13
2018-06-27T20:12:36.605Z,14.05
2018-06-27T20:15:40.656Z,14.01
2018-06-27T20:18:44.954Z,13.92
2018-06-27T20:21:49.623Z,13.84
2018-06-27T20:24:53.918Z,13.79
2018-06-27T20:27:58.437Z,13.68
2018-06-27T20:31:02.863Z,13.63
2018-06-27T20:34:07.154Z,13.58
2018-06-27T20:37:11.553Z,13.51
2018-06-27T20:40:16.602Z,13.46
2018-06-27T20:43:21.975Z,13.33
2018-06-27T20:46:26.365Z,13.20
2018-06-27T20:49:31.169Z,13.17
2018-06-27T20:52:35.806Z,13.07
2018-06-27T20:55:40.154Z,12.72
2018-06-27T20:58:44.648Z,12.66
2018-06-27T21:01:49.034Z,12.76
2018-06-27T21:04:53.767Z,12.70
2018-06-27T21:07:58.309Z,12.66
2018-06-27T21:11:02.571Z,12.62
2018-06-27T21:14:07.601Z,12.57
2018-06-27T21:17:11.926Z,12.62
2018-06-27T21:20:16.305Z,12.59
2018-06-27T21:23:21.645Z,12.51
2018-06-27T21:26:26.121Z,12.49
2018-06-27T21:29:30.418Z,12.54
2018-06-27T21:32:34.734Z,12.55
2018-06-27T21:35:39.432Z,12.61
2018-06-27T21:38:43.818Z,12.52
2018-06-27T21:41:48.145Z,12.53
2018-06-27T21:44:52.515Z,12.54
2018-06-27T21:47:56.805Z,12.48
2018-06-27T21:51:01.183Z,12.32
2018-06-27T21:54:05.559Z,12.03
2018-06-27T21:57:09.820Z,12.17
2018-06-27T22:00:14.474Z,12.22
2018-06-27T22:03:19.302Z,12.34
2018-06-27T22:06:23.591Z,12.41
2018-06-27T22:09:28.328Z,12.49
2018-06-27T22:12:32.595Z,12.50
2018-06-27T22:15:37.007Z,12.66
2018-06-27T22:18:41.718Z,12.73
2018-06-27T22:21:46.032Z,12.76
2018-06-27T22:24:50.305Z,12.81
2018-06-27T22:27:54.577Z,12.88
2018-06-27T22:30:58.865Z,12.88
2018-06-27T22:34:03.179Z,12.73
2018-06-27T22:37:07.482Z,12.71
2018-06-27T22:40:12.047Z,12.66
2018-06-27T22:43:16.966Z,12.71
2018-06-27T22:46:21.257Z,12.83
2018-06-27T22:49:26.613Z,12.90
2018-06-27T22:52:31.044Z,12.83
2018-06-27T22:55:35.325Z,12.76
2018-06-27T22:58:40.074Z,12.78
2018-06-27T23:01:44.378Z,12.81
2018-06-27T23:04:48.858Z,12.84
2018-06-27T23:07:53.117Z,12.85
2018-06-27T23:10:57.382Z,12.86
2018-06-27T23:14:01.725Z,12.97
2018-06-27T23:17:06.270Z,12.86
2018-06-27T23:20:10.575Z,12.84
2018-06-27T23:23:15.448Z,12.83
2018-06-27T23:26:19.823Z,12.83
2018-06-27T23:29:24.205Z,12.74
2018-06-27T23:32:28.679Z,12.66
2018-06-27T23:35:33.411Z,12.61
2018-06-27T23:38:37.677Z,12.55
2018-06-27T23:41:43.063Z,12.53
2018-06-27T23:44:47.567Z,12.45
2018-06-27T23:47:51.986Z,12.27
2018-06-27T23:50:56.430Z,12.11
2018-06-27T23:54:00.970Z,11.58
2018-06-27T23:57:05.262Z,11.56
